Terminal Aerodrome Forecast
Issued by NWS

Current Version | Previous Version | Text Only | Print | Product List | Glossary Off
Versions: 1 2 3 4 5 6 7 8 9 10 11 12 13 14 15 16 17 18 19 20 21

000
FTUS41 KRLX 301700
TAFCKB
TAF
KCKB 301723Z 3018/0118 30005KT P6SM BKN060
     FM302100 36004KT 6SM -SHRA BR OVC040
     FM010400 35004KT 5SM -SHRA BR OVC025
     FM010700 33004KT 4SM BR OVC015
     FM010900 33004KT 4SM BR OVC010
     FM011400 01004KT P6SM BKN020
     FM011600 36004KT P6SM BKN025=

USA.gov is the U.S. government's official web portal to all federal, state and local government web resources and services.